sensor_id;sensor_type;location;lat;lon;timestamp;P1;durP1;ratioP1;P2;durP2;ratioP2
974;SDS011;6115;49.296;10.602;2022-08-11T00:02:34;6.40;;;5.70;;
974;SDS011;6115;49.296;10.602;2022-08-11T00:07:44;4.93;;;4.53;;
974;SDS011;6115;49.296;10.602;2022-08-11T00:12:52;5.20;;;4.80;;
974;SDS011;6115;49.296;10.602;2022-08-11T00:17:58;5.27;;;4.77;;
974;SDS011;6115;49.296;10.602;2022-08-11T00:23:06;5.20;;;4.60;;
974;SDS011;6115;49.296;10.602;2022-08-11T00:28:25;5.57;;;5.17;;
974;SDS011;6115;49.296;10.602;2022-08-11T00:33:40;7.43;;;4.93;;
974;SDS011;6115;49.296;10.602;2022-08-11T00:38:43;4.90;;;4.27;;
974;SDS011;6115;49.296;10.602;2022-08-11T00:49:29;5.20;;;4.80;;
974;SDS011;6115;49.296;10.602;2022-08-11T01:00:21;4.90;;;4.47;;
974;SDS011;6115;49.296;10.602;2022-08-11T01:27:20;5.33;;;4.37;;
974;SDS011;6115;49.296;10.602;2022-08-11T01:48:53;5.30;;;4.83;;
974;SDS011;6115;49.296;10.602;2022-08-11T02:00:25;6.43;;;5.20;;
974;SDS011;6115;49.296;10.602;2022-08-11T02:05:13;5.20;;;4.80;;
974;SDS011;6115;49.296;10.602;2022-08-11T02:10:22;4.77;;;4.37;;
974;SDS011;6115;49.296;10.602;2022-08-11T02:15:49;6.70;;;5.57;;
974;SDS011;6115;49.296;10.602;2022-08-11T02:20:56;7.10;;;5.83;;
974;SDS011;6115;49.296;10.602;2022-08-11T02:26:27;5.70;;;5.30;;
974;SDS011;6115;49.296;10.602;2022-08-11T02:47:47;6.23;;;5.50;;
974;SDS011;6115;49.296;10.602;2022-08-11T02:53:28;6.00;;;5.40;;
974;SDS011;6115;49.296;10.602;2022-08-11T02:58:54;6.73;;;5.50;;
974;SDS011;6115;49.296;10.602;2022-08-11T03:04:36;5.63;;;5.20;;
974;SDS011;6115;49.296;10.602;2022-08-11T03:15:28;5.93;;;5.10;;
974;SDS011;6115;49.296;10.602;2022-08-11T03:26:42;6.40;;;5.57;;
974;SDS011;6115;49.296;10.602;2022-08-11T03:31:58;6.53;;;5.93;;
974;SDS011;6115;49.296;10.602;2022-08-11T03:42:53;6.70;;;5.27;;
974;SDS011;6115;49.296;10.602;2022-08-11T03:48:10;5.77;;;5.33;;
974;SDS011;6115;49.296;10.602;2022-08-11T03:53:15;6.27;;;5.77;;
974;SDS011;6115;49.296;10.602;2022-08-11T05:05:22;10.10;;;7.67;;
974;SDS011;6115;49.296;10.602;2022-08-11T05:15:51;7.20;;;6.50;;
974;SDS011;6115;49.296;10.602;2022-08-11T05:21:12;12.17;;;6.83;;
974;SDS011;6115;49.296;10.602;2022-08-11T05:26:38;7.00;;;6.00;;
974;SDS011;6115;49.296;10.602;2022-08-11T05:32:03;7.80;;;7.10;;
974;SDS011;6115;49.296;10.602;2022-08-11T05:42:30;7.10;;;6.47;;
974;SDS011;6115;49.296;10.602;2022-08-11T05:47:51;9.47;;;5.30;;
974;SDS011;6115;49.296;10.602;2022-08-11T05:53:12;8.50;;;4.93;;
974;SDS011;6115;49.296;10.602;2022-08-11T05:58:33;5.73;;;5.23;;
974;SDS011;6115;49.296;10.602;2022-08-11T06:03:35;5.23;;;4.83;;
974;SDS011;6115;49.296;10.602;2022-08-11T06:08:57;6.10;;;4.77;;
974;SDS011;6115;49.296;10.602;2022-08-11T06:13:59;12.83;;;4.90;;
974;SDS011;6115;49.296;10.602;2022-08-11T06:19:02;6.53;;;4.60;;
974;SDS011;6115;49.296;10.602;2022-08-11T06:24:09;6.10;;;5.50;;
974;SDS011;6115;49.296;10.602;2022-08-11T06:29:11;4.63;;;4.23;;
974;SDS011;6115;49.296;10.602;2022-08-11T06:39:30;4.50;;;4.03;;
974;SDS011;6115;49.296;10.602;2022-08-11T06:44:43;4.57;;;4.27;;
974;SDS011;6115;49.296;10.602;2022-08-11T06:50:00;5.53;;;5.03;;
974;SDS011;6115;49.296;10.602;2022-08-11T06:55:23;8.63;;;4.70;;
974;SDS011;6115;49.296;10.602;2022-08-11T07:00:44;4.47;;;4.07;;
974;SDS011;6115;49.296;10.602;2022-08-11T07:05:49;7.33;;;4.17;;
974;SDS011;6115;49.296;10.602;2022-08-11T07:16:35;7.00;;;4.77;;
974;SDS011;6115;49.296;10.602;2022-08-11T07:21:40;5.20;;;4.70;;
974;SDS011;6115;49.296;10.602;2022-08-11T07:27:01;7.10;;;4.80;;
974;SDS011;6115;49.296;10.602;2022-08-11T07:32:29;6.27;;;4.53;;
974;SDS011;6115;49.296;10.602;2022-08-11T07:37:32;4.00;;;3.60;;
974;SDS011;6115;49.296;10.602;2022-08-11T07:42:34;7.93;;;4.10;;
974;SDS011;6115;49.296;10.602;2022-08-11T07:47:36;4.30;;;3.90;;
974;SDS011;6115;49.296;10.602;2022-08-11T07:52:57;4.97;;;3.27;;
974;SDS011;6115;49.296;10.602;2022-08-11T07:57:59;3.43;;;3.23;;
974;SDS011;6115;49.296;10.602;2022-08-11T08:03:19;3.53;;;3.13;;
974;SDS011;6115;49.296;10.602;2022-08-11T08:08:39;4.90;;;3.33;;
974;SDS011;6115;49.296;10.602;2022-08-11T08:14:00;8.33;;;3.40;;
974;SDS011;6115;49.296;10.602;2022-08-11T08:19:19;3.30;;;3.00;;
974;SDS011;6115;49.296;10.602;2022-08-11T08:24:20;4.40;;;2.50;;
974;SDS011;6115;49.296;10.602;2022-08-11T08:29:22;5.30;;;3.00;;
974;SDS011;6115;49.296;10.602;2022-08-11T08:34:42;4.13;;;2.93;;
974;SDS011;6115;49.296;10.602;2022-08-11T08:39:46;2.80;;;2.60;;
974;SDS011;6115;49.296;10.602;2022-08-11T08:44:49;2.70;;;2.50;;
974;SDS011;6115;49.296;10.602;2022-08-11T08:49:59;2.90;;;2.40;;
974;SDS011;6115;49.296;10.602;2022-08-11T08:55:02;3.57;;;2.50;;
974;SDS011;6115;49.296;10.602;2022-08-11T09:00:04;4.50;;;2.53;;
974;SDS011;6115;49.296;10.602;2022-08-11T09:05:07;2.40;;;2.20;;
974;SDS011;6115;49.296;10.602;2022-08-11T09:10:09;2.50;;;2.30;;
974;SDS011;6115;49.296;10.602;2022-08-11T09:15:10;2.97;;;2.60;;
974;SDS011;6115;49.296;10.602;2022-08-11T09:20:24;2.67;;;2.47;;
974;SDS011;6115;49.296;10.602;2022-08-11T09:25:29;3.33;;;3.03;;
974;SDS011;6115;49.296;10.602;2022-08-11T09:30:50;3.27;;;2.50;;
974;SDS011;6115;49.296;10.602;2022-08-11T09:35:54;2.60;;;2.40;;
974;SDS011;6115;49.296;10.602;2022-08-11T09:40:56;2.50;;;2.30;;
974;SDS011;6115;49.296;10.602;2022-08-11T09:45:58;2.60;;;2.33;;
974;SDS011;6115;49.296;10.602;2022-08-11T09:51:00;2.63;;;2.43;;
974;SDS011;6115;49.296;10.602;2022-08-11T09:56:02;2.27;;;2.07;;
974;SDS011;6115;49.296;10.602;2022-08-11T10:01:27;2.43;;;2.23;;
974;SDS011;6115;49.296;10.602;2022-08-11T10:06:30;2.60;;;2.40;;
974;SDS011;6115;49.296;10.602;2022-08-11T10:11:55;3.20;;;2.00;;
974;SDS011;6115;49.296;10.602;2022-08-11T10:16:57;2.47;;;2.27;;
974;SDS011;6115;49.296;10.602;2022-08-11T10:22:01;3.27;;;2.10;;
974;SDS011;6115;49.296;10.602;2022-08-11T10:27:22;3.10;;;2.13;;
974;SDS011;6115;49.296;10.602;2022-08-11T10:32:24;2.60;;;2.40;;
974;SDS011;6115;49.296;10.602;2022-08-11T10:37:45;3.53;;;2.23;;
974;SDS011;6115;49.296;10.602;2022-08-11T10:42:48;2.87;;;2.10;;
974;SDS011;6115;49.296;10.602;2022-08-11T10:48:03;2.80;;;2.43;;
974;SDS011;6115;49.296;10.602;2022-08-11T10:53:05;2.50;;;2.30;;
974;SDS011;6115;49.296;10.602;2022-08-11T10:58:25;3.50;;;2.40;;
974;SDS011;6115;49.296;10.602;2022-08-11T11:03:45;2.40;;;2.20;;
974;SDS011;6115;49.296;10.602;2022-08-11T11:08:48;2.00;;;1.90;;
974;SDS011;6115;49.296;10.602;2022-08-11T11:13:51;4.07;;;3.67;;
974;SDS011;6115;49.296;10.602;2022-08-11T11:19:11;2.33;;;2.10;;
974;SDS011;6115;49.296;10.602;2022-08-11T11:24:32;2.13;;;1.93;;
974;SDS011;6115;49.296;10.602;2022-08-11T11:30:08;2.73;;;2.13;;
974;SDS011;6115;49.296;10.602;2022-08-11T11:40:17;2.97;;;2.03;;
974;SDS011;6115;49.296;10.602;2022-08-11T11:45:22;2.50;;;2.30;;
974;SDS011;6115;49.296;10.602;2022-08-11T11:55:29;4.50;;;2.13;;
974;SDS011;6115;49.296;10.602;2022-08-11T12:00:30;1.90;;;1.80;;
974;SDS011;6115;49.296;10.602;2022-08-11T12:05:51;2.03;;;1.80;;
974;SDS011;6115;49.296;10.602;2022-08-11T12:10:53;4.00;;;2.50;;
974;SDS011;6115;49.296;10.602;2022-08-11T12:16:16;2.13;;;1.93;;
974;SDS011;6115;49.296;10.602;2022-08-11T12:21:18;4.70;;;2.30;;
974;SDS011;6115;49.296;10.602;2022-08-11T12:26:20;3.00;;;2.20;;
974;SDS011;6115;49.296;10.602;2022-08-11T12:31:41;3.50;;;2.30;;
974;SDS011;6115;49.296;10.602;2022-08-11T12:36:51;2.60;;;1.83;;
974;SDS011;6115;49.296;10.602;2022-08-11T12:41:56;7.60;;;2.40;;
974;SDS011;6115;49.296;10.602;2022-08-11T12:47:19;2.70;;;2.50;;
974;SDS011;6115;49.296;10.602;2022-08-11T12:52:24;3.80;;;3.20;;
974;SDS011;6115;49.296;10.602;2022-08-11T12:57:36;2.10;;;2.00;;
974;SDS011;6115;49.296;10.602;2022-08-11T13:02:56;6.63;;;2.37;;
974;SDS011;6115;49.296;10.602;2022-08-11T13:08:17;2.63;;;2.10;;
974;SDS011;6115;49.296;10.602;2022-08-11T13:13:20;6.40;;;5.90;;
974;SDS011;6115;49.296;10.602;2022-08-11T13:18:22;3.60;;;3.30;;
974;SDS011;6115;49.296;10.602;2022-08-11T13:23:23;4.40;;;4.00;;
974;SDS011;6115;49.296;10.602;2022-08-11T13:28:25;3.27;;;3.00;;
974;SDS011;6115;49.296;10.602;2022-08-11T13:33:26;8.03;;;6.27;;
974;SDS011;6115;49.296;10.602;2022-08-11T13:38:27;6.73;;;5.57;;
974;SDS011;6115;49.296;10.602;2022-08-11T13:43:28;3.37;;;3.07;;
974;SDS011;6115;49.296;10.602;2022-08-11T13:48:29;2.27;;;2.07;;
974;SDS011;6115;49.296;10.602;2022-08-11T13:53:30;2.27;;;2.07;;
974;SDS011;6115;49.296;10.602;2022-08-11T13:58:32;5.03;;;2.13;;
974;SDS011;6115;49.296;10.602;2022-08-11T14:03:32;2.90;;;2.03;;
974;SDS011;6115;49.296;10.602;2022-08-11T14:08:34;3.77;;;2.20;;
974;SDS011;6115;49.296;10.602;2022-08-11T14:13:38;3.30;;;2.20;;
974;SDS011;6115;49.296;10.602;2022-08-11T14:18:43;1.93;;;1.73;;
974;SDS011;6115;49.296;10.602;2022-08-11T14:23:47;2.37;;;2.10;;
974;SDS011;6115;49.296;10.602;2022-08-11T14:28:50;3.30;;;1.90;;
974;SDS011;6115;49.296;10.602;2022-08-11T14:33:55;2.00;;;1.90;;
974;SDS011;6115;49.296;10.602;2022-08-11T14:39:06;3.97;;;1.90;;
974;SDS011;6115;49.296;10.602;2022-08-11T14:44:11;2.23;;;2.03;;
974;SDS011;6115;49.296;10.602;2022-08-11T14:49:34;2.60;;;2.20;;
974;SDS011;6115;49.296;10.602;2022-08-11T14:54:36;5.00;;;2.27;;
974;SDS011;6115;49.296;10.602;2022-08-11T15:00:04;3.80;;;2.20;;
974;SDS011;6115;49.296;10.602;2022-08-11T15:05:11;2.90;;;1.70;;
974;SDS011;6115;49.296;10.602;2022-08-11T15:10:15;2.60;;;1.87;;
974;SDS011;6115;49.296;10.602;2022-08-11T15:15:17;4.63;;;2.10;;
974;SDS011;6115;49.296;10.602;2022-08-11T15:20:38;2.00;;;1.90;;
974;SDS011;6115;49.296;10.602;2022-08-11T15:26:05;1.73;;;1.63;;
974;SDS011;6115;49.296;10.602;2022-08-11T15:31:09;3.07;;;1.57;;
974;SDS011;6115;49.296;10.602;2022-08-11T15:36:30;2.50;;;1.67;;
974;SDS011;6115;49.296;10.602;2022-08-11T15:42:08;4.27;;;1.80;;
974;SDS011;6115;49.296;10.602;2022-08-11T15:47:40;4.23;;;1.80;;
974;SDS011;6115;49.296;10.602;2022-08-11T15:52:52;2.20;;;2.10;;
974;SDS011;6115;49.296;10.602;2022-08-11T15:57:58;3.50;;;2.10;;
974;SDS011;6115;49.296;10.602;2022-08-11T16:03:21;2.70;;;2.07;;
974;SDS011;6115;49.296;10.602;2022-08-11T16:08:42;6.60;;;2.33;;
974;SDS011;6115;49.296;10.602;2022-08-11T16:13:44;2.13;;;1.80;;
974;SDS011;6115;49.296;10.602;2022-08-11T16:19:06;2.30;;;2.10;;
974;SDS011;6115;49.296;10.602;2022-08-11T16:24:10;3.00;;;2.00;;
974;SDS011;6115;49.296;10.602;2022-08-11T16:29:13;2.70;;;2.20;;
974;SDS011;6115;49.296;10.602;2022-08-11T16:34:15;3.10;;;2.37;;
974;SDS011;6115;49.296;10.602;2022-08-11T16:39:34;2.93;;;2.40;;
974;SDS011;6115;49.296;10.602;2022-08-11T16:44:35;2.33;;;2.23;;
974;SDS011;6115;49.296;10.602;2022-08-11T16:49:55;2.03;;;1.83;;
974;SDS011;6115;49.296;10.602;2022-08-11T16:54:57;4.67;;;4.27;;
974;SDS011;6115;49.296;10.602;2022-08-11T17:00:04;2.63;;;2.43;;
974;SDS011;6115;49.296;10.602;2022-08-11T17:05:12;4.03;;;3.53;;
974;SDS011;6115;49.296;10.602;2022-08-11T17:10:39;2.80;;;2.60;;
974;SDS011;6115;49.296;10.602;2022-08-11T17:16:03;5.53;;;2.27;;
974;SDS011;6115;49.296;10.602;2022-08-11T17:21:07;4.30;;;2.30;;
974;SDS011;6115;49.296;10.602;2022-08-11T17:26:26;3.00;;;2.00;;
974;SDS011;6115;49.296;10.602;2022-08-11T17:31:47;4.13;;;1.90;;
974;SDS011;6115;49.296;10.602;2022-08-11T17:37:07;5.83;;;2.00;;
974;SDS011;6115;49.296;10.602;2022-08-11T17:42:08;2.53;;;2.33;;
974;SDS011;6115;49.296;10.602;2022-08-11T17:47:28;2.63;;;2.43;;
974;SDS011;6115;49.296;10.602;2022-08-11T17:52:48;2.40;;;2.20;;
974;SDS011;6115;49.296;10.602;2022-08-11T17:58:08;2.60;;;2.40;;
974;SDS011;6115;49.296;10.602;2022-08-11T18:03:28;4.60;;;2.10;;
974;SDS011;6115;49.296;10.602;2022-08-11T18:08:32;4.47;;;2.20;;
974;SDS011;6115;49.296;10.602;2022-08-11T18:13:56;3.00;;;2.20;;
974;SDS011;6115;49.296;10.602;2022-08-11T18:19:18;3.00;;;2.27;;
974;SDS011;6115;49.296;10.602;2022-08-11T18:24:39;6.13;;;2.50;;
974;SDS011;6115;49.296;10.602;2022-08-11T18:30:02;3.40;;;2.30;;
974;SDS011;6115;49.296;10.602;2022-08-11T18:35:23;4.73;;;2.20;;
974;SDS011;6115;49.296;10.602;2022-08-11T18:40:42;3.17;;;2.03;;
974;SDS011;6115;49.296;10.602;2022-08-11T18:46:04;2.30;;;2.10;;
974;SDS011;6115;49.296;10.602;2022-08-11T18:51:24;3.80;;;2.23;;
974;SDS011;6115;49.296;10.602;2022-08-11T18:56:45;3.83;;;2.27;;
974;SDS011;6115;49.296;10.602;2022-08-11T19:02:05;7.13;;;2.40;;
974;SDS011;6115;49.296;10.602;2022-08-11T19:07:27;5.97;;;2.70;;
974;SDS011;6115;49.296;10.602;2022-08-11T19:12:47;3.80;;;2.50;;
974;SDS011;6115;49.296;10.602;2022-08-11T19:18:09;7.33;;;2.70;;
974;SDS011;6115;49.296;10.602;2022-08-11T19:23:40;7.03;;;2.93;;
974;SDS011;6115;49.296;10.602;2022-08-11T19:29:01;6.07;;;2.50;;
974;SDS011;6115;49.296;10.602;2022-08-11T19:34:23;10.73;;;2.93;;
974;SDS011;6115;49.296;10.602;2022-08-11T19:39:43;2.90;;;2.50;;
974;SDS011;6115;49.296;10.602;2022-08-11T19:45:03;7.27;;;3.60;;
974;SDS011;6115;49.296;10.602;2022-08-11T19:50:23;3.33;;;2.97;;
974;SDS011;6115;49.296;10.602;2022-08-11T19:55:43;6.93;;;3.30;;
974;SDS011;6115;49.296;10.602;2022-08-11T20:01:05;3.30;;;2.80;;
974;SDS011;6115;49.296;10.602;2022-08-11T20:06:24;5.50;;;2.50;;
974;SDS011;6115;49.296;10.602;2022-08-11T20:11:46;3.57;;;2.30;;
974;SDS011;6115;49.296;10.602;2022-08-11T20:17:10;5.00;;;2.70;;
974;SDS011;6115;49.296;10.602;2022-08-11T20:22:31;4.20;;;3.00;;
974;SDS011;6115;49.296;10.602;2022-08-11T20:27:50;7.13;;;3.00;;
974;SDS011;6115;49.296;10.602;2022-08-11T20:33:12;4.80;;;2.80;;
974;SDS011;6115;49.296;10.602;2022-08-11T20:38:32;7.33;;;3.80;;
974;SDS011;6115;49.296;10.602;2022-08-11T20:43:52;6.27;;;3.17;;
974;SDS011;6115;49.296;10.602;2022-08-11T20:49:14;10.73;;;4.00;;
974;SDS011;6115;49.296;10.602;2022-08-11T20:54:35;4.20;;;2.77;;
974;SDS011;6115;49.296;10.602;2022-08-11T20:59:54;5.43;;;3.07;;
974;SDS011;6115;49.296;10.602;2022-08-11T21:05:14;4.23;;;3.80;;
974;SDS011;6115;49.296;10.602;2022-08-11T21:10:35;5.50;;;3.40;;
974;SDS011;6115;49.296;10.602;2022-08-11T21:15:58;7.40;;;3.23;;
974;SDS011;6115;49.296;10.602;2022-08-11T21:21:21;7.30;;;5.17;;
974;SDS011;6115;49.296;10.602;2022-08-11T21:26:42;6.87;;;4.17;;
974;SDS011;6115;49.296;10.602;2022-08-11T21:32:05;9.77;;;3.93;;
974;SDS011;6115;49.296;10.602;2022-08-11T21:37:25;4.40;;;3.47;;
974;SDS011;6115;49.296;10.602;2022-08-11T21:42:46;7.10;;;3.80;;
974;SDS011;6115;49.296;10.602;2022-08-11T21:48:06;9.30;;;3.60;;
974;SDS011;6115;49.296;10.602;2022-08-11T21:53:26;4.70;;;4.07;;
974;SDS011;6115;49.296;10.602;2022-08-11T21:58:47;4.53;;;3.93;;
974;SDS011;6115;49.296;10.602;2022-08-11T22:04:09;5.20;;;4.13;;
974;SDS011;6115;49.296;10.602;2022-08-11T22:09:29;5.93;;;3.90;;
974;SDS011;6115;49.296;10.602;2022-08-11T22:14:48;5.30;;;4.90;;
974;SDS011;6115;49.296;10.602;2022-08-11T22:20:07;3.90;;;3.50;;
974;SDS011;6115;49.296;10.602;2022-08-11T22:25:29;4.47;;;3.80;;
974;SDS011;6115;49.296;10.602;2022-08-11T22:30:49;4.40;;;4.00;;
974;SDS011;6115;49.296;10.602;2022-08-11T22:36:09;6.23;;;3.33;;
974;SDS011;6115;49.296;10.602;2022-08-11T22:41:31;6.23;;;3.43;;
974;SDS011;6115;49.296;10.602;2022-08-11T22:46:50;3.40;;;3.10;;
974;SDS011;6115;49.296;10.602;2022-08-11T22:52:13;3.80;;;3.40;;
974;SDS011;6115;49.296;10.602;2022-08-11T22:57:33;4.00;;;3.50;;
974;SDS011;6115;49.296;10.602;2022-08-11T23:02:53;3.60;;;3.20;;
974;SDS011;6115;49.296;10.602;2022-08-11T23:08:13;5.87;;;3.17;;
974;SDS011;6115;49.296;10.602;2022-08-11T23:13:33;5.60;;;3.30;;
974;SDS011;6115;49.296;10.602;2022-08-11T23:18:52;5.93;;;3.50;;
974;SDS011;6115;49.296;10.602;2022-08-11T23:24:13;4.63;;;3.40;;
974;SDS011;6115;49.296;10.602;2022-08-11T23:29:33;5.00;;;3.80;;
974;SDS011;6115;49.296;10.602;2022-08-11T23:34:53;3.70;;;3.10;;
974;SDS011;6115;49.296;10.602;2022-08-11T23:40:14;3.90;;;3.50;;
974;SDS011;6115;49.296;10.602;2022-08-11T23:45:33;4.83;;;3.70;;
974;SDS011;6115;49.296;10.602;2022-08-11T23:50:53;4.17;;;3.77;;
974;SDS011;6115;49.296;10.602;2022-08-11T23:56:13;3.63;;;3.33;;
